sensor_id;sensor_type;location;lat;lon;timestamp;P1;durP1;ratioP1;P2;durP2;ratioP2
67839;SDS011;54636;51.684;5.142;2024-01-30T00:00:53;10.77;;;8.75;;
67839;SDS011;54636;51.684;5.142;2024-01-30T00:03:19;8.85;;;7.97;;
67839;SDS011;54636;51.684;5.142;2024-01-30T00:05:44;11.43;;;8.55;;
67839;SDS011;54636;51.684;5.142;2024-01-30T00:08:10;8.40;;;7.57;;
67839;SDS011;54636;51.684;5.142;2024-01-30T00:10:35;11.88;;;9.10;;
67839;SDS011;54636;51.684;5.142;2024-01-30T00:13:01;9.65;;;8.55;;
67839;SDS011;54636;51.684;5.142;2024-01-30T00:15:27;11.77;;;8.35;;
67839;SDS011;54636;51.684;5.142;2024-01-30T00:17:53;12.07;;;8.38;;
67839;SDS011;54636;51.684;5.142;2024-01-30T00:20:18;12.55;;;8.52;;
67839;SDS011;54636;51.684;5.142;2024-01-30T00:22:44;10.02;;;9.05;;
67839;SDS011;54636;51.684;5.142;2024-01-30T00:25:09;9.70;;;8.73;;
67839;SDS011;54636;51.684;5.142;2024-01-30T00:27:35;12.02;;;8.18;;
67839;SDS011;54636;51.684;5.142;2024-01-30T00:30:00;11.43;;;8.32;;
67839;SDS011;54636;51.684;5.142;2024-01-30T00:32:26;13.85;;;9.10;;
67839;SDS011;54636;51.684;5.142;2024-01-30T00:34:51;13.75;;;8.90;;
67839;SDS011;54636;51.684;5.142;2024-01-30T00:37:16;10.20;;;8.45;;
67839;SDS011;54636;51.684;5.142;2024-01-30T00:39:42;8.77;;;7.93;;
67839;SDS011;54636;51.684;5.142;2024-01-30T00:42:07;14.15;;;9.55;;
67839;SDS011;54636;51.684;5.142;2024-01-30T00:44:34;10.10;;;8.98;;
67839;SDS011;54636;51.684;5.142;2024-01-30T00:49:28;10.27;;;8.13;;
67839;SDS011;54636;51.684;5.142;2024-01-30T00:51:53;10.00;;;8.40;;
67839;SDS011;54636;51.684;5.142;2024-01-30T00:54:19;13.98;;;9.38;;
67839;SDS011;54636;51.684;5.142;2024-01-30T00:56:44;9.50;;;8.60;;
67839;SDS011;54636;51.684;5.142;2024-01-30T00:59:10;11.85;;;8.40;;
67839;SDS011;54636;51.684;5.142;2024-01-30T01:01:36;9.63;;;8.43;;
67839;SDS011;54636;51.684;5.142;2024-01-30T01:04:01;9.60;;;8.52;;
67839;SDS011;54636;51.684;5.142;2024-01-30T01:06:27;10.75;;;9.10;;
67839;SDS011;54636;51.684;5.142;2024-01-30T01:08:52;9.63;;;8.57;;
67839;SDS011;54636;51.684;5.142;2024-01-30T01:11:18;11.43;;;8.60;;
67839;SDS011;54636;51.684;5.142;2024-01-30T01:13:43;12.05;;;8.57;;
67839;SDS011;54636;51.684;5.142;2024-01-30T01:16:08;13.80;;;9.70;;
67839;SDS011;54636;51.684;5.142;2024-01-30T01:18:34;15.00;;;9.07;;
67839;SDS011;54636;51.684;5.142;2024-01-30T01:20:59;9.68;;;8.73;;
67839;SDS011;54636;51.684;5.142;2024-01-30T01:23:25;13.35;;;9.07;;
67839;SDS011;54636;51.684;5.142;2024-01-30T01:25:51;14.07;;;10.13;;
67839;SDS011;54636;51.684;5.142;2024-01-30T01:28:16;9.93;;;8.30;;
67839;SDS011;54636;51.684;5.142;2024-01-30T01:30:42;9.90;;;8.88;;
67839;SDS011;54636;51.684;5.142;2024-01-30T01:33:07;13.82;;;9.43;;
67839;SDS011;54636;51.684;5.142;2024-01-30T01:35:34;9.65;;;8.75;;
67839;SDS011;54636;51.684;5.142;2024-01-30T01:37:59;12.30;;;8.93;;
67839;SDS011;54636;51.684;5.142;2024-01-30T01:40:25;9.98;;;8.93;;
67839;SDS011;54636;51.684;5.142;2024-01-30T01:42:52;12.30;;;9.27;;
67839;SDS011;54636;51.684;5.142;2024-01-30T01:45:18;10.18;;;9.10;;
67839;SDS011;54636;51.684;5.142;2024-01-30T01:47:45;14.88;;;9.55;;
67839;SDS011;54636;51.684;5.142;2024-01-30T01:50:13;14.05;;;9.75;;
67839;SDS011;54636;51.684;5.142;2024-01-30T01:52:43;11.68;;;9.07;;
67839;SDS011;54636;51.684;5.142;2024-01-30T01:55:09;13.90;;;9.38;;
67839;SDS011;54636;51.684;5.142;2024-01-30T01:57:36;12.82;;;8.70;;
67839;SDS011;54636;51.684;5.142;2024-01-30T02:00:02;9.30;;;8.30;;
67839;SDS011;54636;51.684;5.142;2024-01-30T02:02:30;10.60;;;8.23;;
67839;SDS011;54636;51.684;5.142;2024-01-30T02:04:59;10.98;;;8.75;;
67839;SDS011;54636;51.684;5.142;2024-01-30T02:07:25;9.95;;;8.85;;
67839;SDS011;54636;51.684;5.142;2024-01-30T02:09:52;11.32;;;8.48;;
67839;SDS011;54636;51.684;5.142;2024-01-30T02:12:18;9.65;;;8.60;;
67839;SDS011;54636;51.684;5.142;2024-01-30T02:14:46;12.30;;;8.77;;
67839;SDS011;54636;51.684;5.142;2024-01-30T02:17:12;9.57;;;8.67;;
67839;SDS011;54636;51.684;5.142;2024-01-30T02:19:39;9.95;;;8.82;;
67839;SDS011;54636;51.684;5.142;2024-01-30T02:22:05;9.55;;;8.32;;
67839;SDS011;54636;51.684;5.142;2024-01-30T02:24:30;13.85;;;9.43;;
67839;SDS011;54636;51.684;5.142;2024-01-30T02:26:56;11.52;;;9.10;;
67839;SDS011;54636;51.684;5.142;2024-01-30T02:29:21;11.18;;;8.80;;
67839;SDS011;54636;51.684;5.142;2024-01-30T02:31:46;11.85;;;9.23;;
67839;SDS011;54636;51.684;5.142;2024-01-30T02:34:13;13.57;;;8.63;;
67839;SDS011;54636;51.684;5.142;2024-01-30T02:36:38;9.10;;;7.93;;
67839;SDS011;54636;51.684;5.142;2024-01-30T02:39:07;9.63;;;8.32;;
67839;SDS011;54636;51.684;5.142;2024-01-30T02:41:33;9.18;;;8.25;;
67839;SDS011;54636;51.684;5.142;2024-01-30T02:43:58;9.32;;;8.43;;
67839;SDS011;54636;51.684;5.142;2024-01-30T02:46:23;11.57;;;8.68;;
67839;SDS011;54636;51.684;5.142;2024-01-30T02:48:49;8.63;;;7.82;;
67839;SDS011;54636;51.684;5.142;2024-01-30T02:51:14;13.20;;;9.00;;
67839;SDS011;54636;51.684;5.142;2024-01-30T02:53:40;8.68;;;7.78;;
67839;SDS011;54636;51.684;5.142;2024-01-30T02:56:05;9.82;;;7.75;;
67839;SDS011;54636;51.684;5.142;2024-01-30T02:58:31;11.68;;;8.75;;
67839;SDS011;54636;51.684;5.142;2024-01-30T03:00:56;12.63;;;8.40;;
67839;SDS011;54636;51.684;5.142;2024-01-30T03:03:21;8.55;;;7.75;;
67839;SDS011;54636;51.684;5.142;2024-01-30T03:05:47;12.18;;;8.93;;
67839;SDS011;54636;51.684;5.142;2024-01-30T03:08:13;10.45;;;8.70;;
67839;SDS011;54636;51.684;5.142;2024-01-30T03:10:38;11.68;;;9.10;;
67839;SDS011;54636;51.684;5.142;2024-01-30T03:13:03;9.63;;;8.48;;
67839;SDS011;54636;51.684;5.142;2024-01-30T03:15:29;13.25;;;8.38;;
67839;SDS011;54636;51.684;5.142;2024-01-30T03:17:54;10.95;;;8.95;;
67839;SDS011;54636;51.684;5.142;2024-01-30T03:20:19;9.60;;;7.78;;
67839;SDS011;54636;51.684;5.142;2024-01-30T03:22:45;8.80;;;7.32;;
67839;SDS011;54636;51.684;5.142;2024-01-30T03:25:10;9.48;;;8.00;;
67839;SDS011;54636;51.684;5.142;2024-01-30T03:27:35;12.73;;;8.43;;
67839;SDS011;54636;51.684;5.142;2024-01-30T03:30:01;8.60;;;7.80;;
67839;SDS011;54636;51.684;5.142;2024-01-30T03:32:27;9.43;;;8.30;;
67839;SDS011;54636;51.684;5.142;2024-01-30T03:34:53;10.80;;;7.80;;
67839;SDS011;54636;51.684;5.142;2024-01-30T03:37:18;9.23;;;8.32;;
67839;SDS011;54636;51.684;5.142;2024-01-30T03:39:44;8.43;;;7.57;;
67839;SDS011;54636;51.684;5.142;2024-01-30T03:42:09;11.00;;;7.70;;
67839;SDS011;54636;51.684;5.142;2024-01-30T03:44:35;9.45;;;8.07;;
67839;SDS011;54636;51.684;5.142;2024-01-30T03:47:00;7.30;;;6.57;;
67839;SDS011;54636;51.684;5.142;2024-01-30T03:49:25;9.02;;;7.53;;
67839;SDS011;54636;51.684;5.142;2024-01-30T03:51:51;8.55;;;7.50;;
67839;SDS011;54636;51.684;5.142;2024-01-30T03:54:16;10.98;;;8.30;;
67839;SDS011;54636;51.684;5.142;2024-01-30T03:56:41;8.82;;;7.53;;
67839;SDS011;54636;51.684;5.142;2024-01-30T03:59:07;10.30;;;6.97;;
67839;SDS011;54636;51.684;5.142;2024-01-30T04:01:32;7.43;;;6.72;;
67839;SDS011;54636;51.684;5.142;2024-01-30T04:03:58;9.38;;;7.15;;
67839;SDS011;54636;51.684;5.142;2024-01-30T04:06:23;8.45;;;6.95;;
67839;SDS011;54636;51.684;5.142;2024-01-30T04:08:49;8.30;;;6.70;;
67839;SDS011;54636;51.684;5.142;2024-01-30T04:11:14;9.52;;;7.05;;
67839;SDS011;54636;51.684;5.142;2024-01-30T04:13:40;11.27;;;6.75;;
67839;SDS011;54636;51.684;5.142;2024-01-30T04:16:05;8.05;;;6.10;;
67839;SDS011;54636;51.684;5.142;2024-01-30T04:18:31;9.30;;;6.68;;
67839;SDS011;54636;51.684;5.142;2024-01-30T04:20:57;7.88;;;6.65;;
67839;SDS011;54636;51.684;5.142;2024-01-30T04:23:22;7.30;;;6.70;;
67839;SDS011;54636;51.684;5.142;2024-01-30T04:25:48;6.93;;;6.30;;
67839;SDS011;54636;51.684;5.142;2024-01-30T04:28:13;10.25;;;6.55;;
67839;SDS011;54636;51.684;5.142;2024-01-30T04:30:38;11.30;;;7.93;;
67839;SDS011;54636;51.684;5.142;2024-01-30T04:33:04;7.68;;;6.90;;
67839;SDS011;54636;51.684;5.142;2024-01-30T04:35:30;7.47;;;6.70;;
67839;SDS011;54636;51.684;5.142;2024-01-30T04:37:55;8.20;;;6.18;;
67839;SDS011;54636;51.684;5.142;2024-01-30T04:40:21;7.22;;;6.53;;
67839;SDS011;54636;51.684;5.142;2024-01-30T04:42:46;7.88;;;6.40;;
67839;SDS011;54636;51.684;5.142;2024-01-30T04:45:12;8.63;;;6.22;;
67839;SDS011;54636;51.684;5.142;2024-01-30T04:47:37;8.18;;;6.30;;
67839;SDS011;54636;51.684;5.142;2024-01-30T04:50:04;10.40;;;5.75;;
67839;SDS011;54636;51.684;5.142;2024-01-30T04:52:31;7.47;;;6.07;;
67839;SDS011;54636;51.684;5.142;2024-01-30T04:54:56;6.40;;;5.80;;
67839;SDS011;54636;51.684;5.142;2024-01-30T04:57:21;10.15;;;5.78;;
67839;SDS011;54636;51.684;5.142;2024-01-30T04:59:47;7.95;;;5.60;;
67839;SDS011;54636;51.684;5.142;2024-01-30T05:02:12;6.93;;;6.22;;
67839;SDS011;54636;51.684;5.142;2024-01-30T05:04:38;6.50;;;5.90;;
67839;SDS011;54636;51.684;5.142;2024-01-30T05:07:03;8.55;;;6.53;;
67839;SDS011;54636;51.684;5.142;2024-01-30T05:09:29;7.97;;;6.93;;
67839;SDS011;54636;51.684;5.142;2024-01-30T05:11:54;7.78;;;6.15;;
67839;SDS011;54636;51.684;5.142;2024-01-30T05:14:20;10.88;;;6.40;;
67839;SDS011;54636;51.684;5.142;2024-01-30T05:16:45;7.90;;;6.28;;
67839;SDS011;54636;51.684;5.142;2024-01-30T05:19:12;7.75;;;6.13;;
67839;SDS011;54636;51.684;5.142;2024-01-30T05:21:39;8.50;;;5.95;;
67839;SDS011;54636;51.684;5.142;2024-01-30T05:24:04;14.10;;;5.50;;
67839;SDS011;54636;51.684;5.142;2024-01-30T05:26:30;6.70;;;6.07;;
67839;SDS011;54636;51.684;5.142;2024-01-30T05:28:55;9.63;;;6.07;;
67839;SDS011;54636;51.684;5.142;2024-01-30T05:31:21;6.75;;;6.15;;
67839;SDS011;54636;51.684;5.142;2024-01-30T05:33:47;8.88;;;6.82;;
67839;SDS011;54636;51.684;5.142;2024-01-30T05:36:12;6.00;;;5.50;;
67839;SDS011;54636;51.684;5.142;2024-01-30T05:38:38;7.93;;;5.75;;
67839;SDS011;54636;51.684;5.142;2024-01-30T05:41:04;6.78;;;6.00;;
67839;SDS011;54636;51.684;5.142;2024-01-30T05:43:29;10.73;;;6.05;;
67839;SDS011;54636;51.684;5.142;2024-01-30T05:45:54;10.50;;;6.18;;
67839;SDS011;54636;51.684;5.142;2024-01-30T05:48:20;7.25;;;5.80;;
67839;SDS011;54636;51.684;5.142;2024-01-30T05:50:46;6.20;;;5.55;;
67839;SDS011;54636;51.684;5.142;2024-01-30T05:53:11;9.65;;;5.53;;
67839;SDS011;54636;51.684;5.142;2024-01-30T05:55:37;7.00;;;5.97;;
67839;SDS011;54636;51.684;5.142;2024-01-30T05:58:02;7.00;;;6.18;;
67839;SDS011;54636;51.684;5.142;2024-01-30T06:00:28;7.30;;;5.95;;
67839;SDS011;54636;51.684;5.142;2024-01-30T06:02:53;8.60;;;5.70;;
67839;SDS011;54636;51.684;5.142;2024-01-30T06:05:18;5.65;;;5.25;;
67839;SDS011;54636;51.684;5.142;2024-01-30T06:07:44;6.57;;;5.70;;
67839;SDS011;54636;51.684;5.142;2024-01-30T06:10:09;6.75;;;5.47;;
67839;SDS011;54636;51.684;5.142;2024-01-30T06:12:35;6.75;;;5.57;;
67839;SDS011;54636;51.684;5.142;2024-01-30T06:15:01;10.20;;;6.15;;
67839;SDS011;54636;51.684;5.142;2024-01-30T06:17:27;7.28;;;5.70;;
67839;SDS011;54636;51.684;5.142;2024-01-30T06:19:53;9.63;;;5.32;;
67839;SDS011;54636;51.684;5.142;2024-01-30T06:22:19;7.32;;;5.53;;
67839;SDS011;54636;51.684;5.142;2024-01-30T06:24:45;5.57;;;5.07;;
67839;SDS011;54636;51.684;5.142;2024-01-30T06:27:12;6.05;;;5.53;;
67839;SDS011;54636;51.684;5.142;2024-01-30T06:29:38;6.25;;;5.07;;
67839;SDS011;54636;51.684;5.142;2024-01-30T06:32:03;5.70;;;5.20;;
67839;SDS011;54636;51.684;5.142;2024-01-30T06:34:29;9.02;;;6.25;;
67839;SDS011;54636;51.684;5.142;2024-01-30T06:36:55;14.73;;;6.03;;
67839;SDS011;54636;51.684;5.142;2024-01-30T06:39:20;8.57;;;5.03;;
67839;SDS011;54636;51.684;5.142;2024-01-30T06:41:45;10.25;;;5.75;;
67839;SDS011;54636;51.684;5.142;2024-01-30T06:44:11;9.75;;;5.25;;
67839;SDS011;54636;51.684;5.142;2024-01-30T06:46:37;7.40;;;5.78;;
67839;SDS011;54636;51.684;5.142;2024-01-30T06:49:03;6.38;;;5.30;;
67839;SDS011;54636;51.684;5.142;2024-01-30T06:51:29;9.20;;;5.55;;
67839;SDS011;54636;51.684;5.142;2024-01-30T06:53:54;6.72;;;5.97;;
67839;SDS011;54636;51.684;5.142;2024-01-30T06:56:19;5.55;;;5.03;;
67839;SDS011;54636;51.684;5.142;2024-01-30T06:58:49;8.18;;;5.40;;
67839;SDS011;54636;51.684;5.142;2024-01-30T07:01:15;5.45;;;4.95;;
67839;SDS011;54636;51.684;5.142;2024-01-30T07:03:41;6.93;;;4.38;;
67839;SDS011;54636;51.684;5.142;2024-01-30T07:06:07;7.90;;;5.97;;
67839;SDS011;54636;51.684;5.142;2024-01-30T07:08:32;9.20;;;5.35;;
67839;SDS011;54636;51.684;5.142;2024-01-30T07:10:57;8.15;;;5.57;;
67839;SDS011;54636;51.684;5.142;2024-01-30T07:13:23;7.68;;;5.75;;
67839;SDS011;54636;51.684;5.142;2024-01-30T07:15:48;6.20;;;4.97;;
67839;SDS011;54636;51.684;5.142;2024-01-30T07:18:13;5.97;;;4.40;;
67839;SDS011;54636;51.684;5.142;2024-01-30T07:20:39;9.73;;;5.40;;
67839;SDS011;54636;51.684;5.142;2024-01-30T07:23:11;8.32;;;4.72;;
67839;SDS011;54636;51.684;5.142;2024-01-30T07:25:39;5.05;;;4.65;;
67839;SDS011;54636;51.684;5.142;2024-01-30T07:28:06;4.95;;;4.45;;
67839;SDS011;54636;51.684;5.142;2024-01-30T07:30:32;7.43;;;5.82;;
67839;SDS011;54636;51.684;5.142;2024-01-30T07:32:57;7.63;;;4.07;;
67839;SDS011;54636;51.684;5.142;2024-01-30T07:35:23;7.68;;;4.82;;
67839;SDS011;54636;51.684;5.142;2024-01-30T07:37:48;8.48;;;5.03;;
67839;SDS011;54636;51.684;5.142;2024-01-30T07:40:13;3.88;;;3.47;;
67839;SDS011;54636;51.684;5.142;2024-01-30T07:42:39;9.20;;;4.95;;
67839;SDS011;54636;51.684;5.142;2024-01-30T07:45:04;7.40;;;5.57;;
67839;SDS011;54636;51.684;5.142;2024-01-30T07:47:30;6.47;;;4.82;;
67839;SDS011;54636;51.684;5.142;2024-01-30T07:49:55;5.90;;;4.78;;
67839;SDS011;54636;51.684;5.142;2024-01-30T07:52:21;8.20;;;5.18;;
67839;SDS011;54636;51.684;5.142;2024-01-30T07:54:50;9.77;;;5.72;;
67839;SDS011;54636;51.684;5.142;2024-01-30T07:57:16;6.68;;;4.32;;
67839;SDS011;54636;51.684;5.142;2024-01-30T07:59:44;7.93;;;4.85;;
67839;SDS011;54636;51.684;5.142;2024-01-30T08:02:11;8.50;;;5.18;;
67839;SDS011;54636;51.684;5.142;2024-01-30T08:04:37;8.98;;;5.25;;
67839;SDS011;54636;51.684;5.142;2024-01-30T08:07:02;10.70;;;5.57;;
67839;SDS011;54636;51.684;5.142;2024-01-30T08:09:28;6.10;;;5.53;;
67839;SDS011;54636;51.684;5.142;2024-01-30T08:11:53;8.38;;;5.88;;
67839;SDS011;54636;51.684;5.142;2024-01-30T08:14:19;5.65;;;4.78;;
67839;SDS011;54636;51.684;5.142;2024-01-30T08:16:44;9.25;;;5.82;;
67839;SDS011;54636;51.684;5.142;2024-01-30T08:19:10;11.15;;;5.70;;
67839;SDS011;54636;51.684;5.142;2024-01-30T08:21:35;9.27;;;6.40;;
67839;SDS011;54636;51.684;5.142;2024-01-30T08:24:04;9.82;;;5.80;;
67839;SDS011;54636;51.684;5.142;2024-01-30T08:26:34;12.25;;;5.45;;
67839;SDS011;54636;51.684;5.142;2024-01-30T08:29:00;4.97;;;4.50;;
67839;SDS011;54636;51.684;5.142;2024-01-30T08:31:26;7.28;;;5.10;;
67839;SDS011;54636;51.684;5.142;2024-01-30T08:33:51;8.70;;;5.43;;
67839;SDS011;54636;51.684;5.142;2024-01-30T08:36:17;10.55;;;5.18;;
67839;SDS011;54636;51.684;5.142;2024-01-30T08:38:42;10.38;;;6.00;;
67839;SDS011;54636;51.684;5.142;2024-01-30T08:41:08;12.50;;;4.63;;
67839;SDS011;54636;51.684;5.142;2024-01-30T08:43:33;11.80;;;6.47;;
67839;SDS011;54636;51.684;5.142;2024-01-30T08:45:59;7.93;;;5.47;;
67839;SDS011;54636;51.684;5.142;2024-01-30T08:48:25;9.32;;;4.88;;
67839;SDS011;54636;51.684;5.142;2024-01-30T08:50:51;10.45;;;5.25;;
67839;SDS011;54636;51.684;5.142;2024-01-30T08:53:16;12.00;;;5.47;;
67839;SDS011;54636;51.684;5.142;2024-01-30T08:55:42;8.45;;;5.85;;
67839;SDS011;54636;51.684;5.142;2024-01-30T08:58:07;9.88;;;5.85;;
67839;SDS011;54636;51.684;5.142;2024-01-30T09:00:32;10.13;;;5.72;;
67839;SDS011;54636;51.684;5.142;2024-01-30T09:02:58;5.35;;;4.65;;
67839;SDS011;54636;51.684;5.142;2024-01-30T09:05:23;13.15;;;5.95;;
67839;SDS011;54636;51.684;5.142;2024-01-30T09:07:49;9.40;;;5.82;;
67839;SDS011;54636;51.684;5.142;2024-01-30T09:10:14;9.25;;;5.55;;
67839;SDS011;54636;51.684;5.142;2024-01-30T09:12:40;12.88;;;5.72;;
67839;SDS011;54636;51.684;5.142;2024-01-30T09:15:06;10.55;;;5.18;;
67839;SDS011;54636;51.684;5.142;2024-01-30T09:17:32;8.65;;;5.63;;
67839;SDS011;54636;51.684;5.142;2024-01-30T09:19:58;9.98;;;5.00;;
67839;SDS011;54636;51.684;5.142;2024-01-30T09:22:23;10.52;;;5.82;;
67839;SDS011;54636;51.684;5.142;2024-01-30T09:24:49;7.80;;;5.60;;
67839;SDS011;54636;51.684;5.142;2024-01-30T09:27:14;7.28;;;5.10;;
67839;SDS011;54636;51.684;5.142;2024-01-30T09:29:40;8.52;;;4.97;;
67839;SDS011;54636;51.684;5.142;2024-01-30T09:32:05;7.97;;;5.32;;
67839;SDS011;54636;51.684;5.142;2024-01-30T09:34:31;7.30;;;5.00;;
67839;SDS011;54636;51.684;5.142;2024-01-30T09:36:57;6.95;;;4.72;;
67839;SDS011;54636;51.684;5.142;2024-01-30T09:39:23;14.68;;;5.40;;
67839;SDS011;54636;51.684;5.142;2024-01-30T09:41:49;9.63;;;5.40;;
67839;SDS011;54636;51.684;5.142;2024-01-30T09:44:25;9.57;;;6.10;;
67839;SDS011;54636;51.684;5.142;2024-01-30T09:46:53;15.25;;;5.97;;
67839;SDS011;54636;51.684;5.142;2024-01-30T09:49:20;7.22;;;6.07;;
67839;SDS011;54636;51.684;5.142;2024-01-30T09:51:49;12.73;;;5.53;;
67839;SDS011;54636;51.684;5.142;2024-01-30T09:54:15;9.50;;;5.10;;
67839;SDS011;54636;51.684;5.142;2024-01-30T09:56:41;8.55;;;5.35;;
67839;SDS011;54636;51.684;5.142;2024-01-30T09:59:07;11.52;;;6.30;;
67839;SDS011;54636;51.684;5.142;2024-01-30T10:01:34;10.38;;;5.55;;
67839;SDS011;54636;51.684;5.142;2024-01-30T10:04:00;8.10;;;5.18;;
67839;SDS011;54636;51.684;5.142;2024-01-30T10:06:25;7.25;;;5.40;;
67839;SDS011;54636;51.684;5.142;2024-01-30T10:08:52;9.13;;;5.88;;
67839;SDS011;54636;51.684;5.142;2024-01-30T10:11:18;11.45;;;5.88;;
67839;SDS011;54636;51.684;5.142;2024-01-30T10:13:43;10.77;;;6.00;;
67839;SDS011;54636;51.684;5.142;2024-01-30T10:16:08;8.43;;;5.43;;
67839;SDS011;54636;51.684;5.142;2024-01-30T10:18:34;13.75;;;5.18;;
67839;SDS011;54636;51.684;5.142;2024-01-30T10:20:59;9.50;;;5.97;;
67839;SDS011;54636;51.684;5.142;2024-01-30T10:23:25;9.93;;;5.78;;
67839;SDS011;54636;51.684;5.142;2024-01-30T10:25:51;9.02;;;5.45;;
67839;SDS011;54636;51.684;5.142;2024-01-30T10:28:17;8.90;;;5.05;;
67839;SDS011;54636;51.684;5.142;2024-01-30T10:30:42;8.43;;;5.88;;
67839;SDS011;54636;51.684;5.142;2024-01-30T10:33:08;7.20;;;5.10;;
67839;SDS011;54636;51.684;5.142;2024-01-30T10:35:34;7.78;;;5.05;;
67839;SDS011;54636;51.684;5.142;2024-01-30T10:37:59;7.45;;;4.95;;
67839;SDS011;54636;51.684;5.142;2024-01-30T10:40:27;7.10;;;5.07;;
67839;SDS011;54636;51.684;5.142;2024-01-30T10:42:53;6.78;;;4.80;;
67839;SDS011;54636;51.684;5.142;2024-01-30T10:45:20;9.80;;;5.15;;
67839;SDS011;54636;51.684;5.142;2024-01-30T10:47:50;9.40;;;5.07;;
67839;SDS011;54636;51.684;5.142;2024-01-30T10:50:19;11.52;;;5.55;;
67839;SDS011;54636;51.684;5.142;2024-01-30T10:52:45;8.65;;;4.20;;
67839;SDS011;54636;51.684;5.142;2024-01-30T10:55:13;10.40;;;5.50;;
67839;SDS011;54636;51.684;5.142;2024-01-30T10:57:40;6.97;;;5.07;;
67839;SDS011;54636;51.684;5.142;2024-01-30T11:00:09;12.55;;;5.65;;
67839;SDS011;54636;51.684;5.142;2024-01-30T11:02:40;13.73;;;5.80;;
67839;SDS011;54636;51.684;5.142;2024-01-30T11:05:07;11.65;;;4.40;;
67839;SDS011;54636;51.684;5.142;2024-01-30T11:07:33;6.78;;;4.80;;
67839;SDS011;54636;51.684;5.142;2024-01-30T11:12:37;6.72;;;3.50;;
67839;SDS011;54636;51.684;5.142;2024-01-30T11:15:09;6.30;;;4.68;;
67839;SDS011;54636;51.684;5.142;2024-01-30T11:20:25;7.85;;;3.30;;
67839;SDS011;54636;51.684;5.142;2024-01-30T11:22:55;7.82;;;3.38;;
67839;SDS011;54636;51.684;5.142;2024-01-30T11:25:21;5.40;;;2.50;;
67839;SDS011;54636;51.684;5.142;2024-01-30T11:27:49;4.15;;;2.80;;
67839;SDS011;54636;51.684;5.142;2024-01-30T11:30:25;2.20;;;1.95;;
67839;SDS011;54636;51.684;5.142;2024-01-30T11:32:59;4.40;;;2.10;;
67839;SDS011;54636;51.684;5.142;2024-01-30T11:35:30;3.85;;;1.70;;
67839;SDS011;54636;51.684;5.142;2024-01-30T11:37:57;3.13;;;1.88;;
67839;SDS011;54636;51.684;5.142;2024-01-30T11:40:25;4.75;;;1.40;;
67839;SDS011;54636;51.684;5.142;2024-01-30T11:42:52;8.35;;;1.80;;
67839;SDS011;54636;51.684;5.142;2024-01-30T11:45:19;3.45;;;1.52;;
67839;SDS011;54636;51.684;5.142;2024-01-30T11:47:44;3.10;;;1.17;;
67839;SDS011;54636;51.684;5.142;2024-01-30T11:50:10;2.85;;;1.80;;
67839;SDS011;54636;51.684;5.142;2024-01-30T11:52:36;3.55;;;1.42;;
67839;SDS011;54636;51.684;5.142;2024-01-30T11:55:01;6.45;;;1.45;;
67839;SDS011;54636;51.684;5.142;2024-01-30T11:57:27;4.10;;;1.42;;
67839;SDS011;54636;51.684;5.142;2024-01-30T11:59:53;2.50;;;1.52;;
67839;SDS011;54636;51.684;5.142;2024-01-30T12:02:19;5.70;;;1.30;;
67839;SDS011;54636;51.684;5.142;2024-01-30T12:04:44;3.97;;;1.50;;
67839;SDS011;54636;51.684;5.142;2024-01-30T12:07:10;5.68;;;1.10;;
67839;SDS011;54636;51.684;5.142;2024-01-30T12:09:36;3.13;;;0.98;;
67839;SDS011;54636;51.684;5.142;2024-01-30T12:12:01;1.25;;;1.08;;
67839;SDS011;54636;51.684;5.142;2024-01-30T12:14:26;3.80;;;1.40;;
67839;SDS011;54636;51.684;5.142;2024-01-30T12:16:52;5.63;;;1.02;;
67839;SDS011;54636;51.684;5.142;2024-01-30T12:19:21;2.28;;;1.27;;
67839;SDS011;54636;51.684;5.142;2024-01-30T12:21:53;2.35;;;1.00;;
67839;SDS011;54636;51.684;5.142;2024-01-30T12:24:21;2.47;;;1.05;;
67839;SDS011;54636;51.684;5.142;2024-01-30T12:26:47;1.92;;;0.70;;
67839;SDS011;54636;51.684;5.142;2024-01-30T12:29:12;1.67;;;0.63;;
67839;SDS011;54636;51.684;5.142;2024-01-30T12:31:41;1.13;;;0.50;;
67839;SDS011;54636;51.684;5.142;2024-01-30T12:34:07;1.63;;;0.75;;
67839;SDS011;54636;51.684;5.142;2024-01-30T12:36:33;2.47;;;0.70;;
67839;SDS011;54636;51.684;5.142;2024-01-30T12:38:59;1.30;;;0.60;;
67839;SDS011;54636;51.684;5.142;2024-01-30T12:41:25;0.98;;;0.55;;
67839;SDS011;54636;51.684;5.142;2024-01-30T12:43:54;3.92;;;0.75;;
67839;SDS011;54636;51.684;5.142;2024-01-30T12:46:21;1.35;;;0.50;;
67839;SDS011;54636;51.684;5.142;2024-01-30T12:48:52;0.57;;;0.35;;
67839;SDS011;54636;51.684;5.142;2024-01-30T12:51:18;1.48;;;0.60;;
67839;SDS011;54636;51.684;5.142;2024-01-30T12:53:43;1.20;;;0.45;;
67839;SDS011;54636;51.684;5.142;2024-01-30T12:56:09;2.38;;;0.77;;
67839;SDS011;54636;51.684;5.142;2024-01-30T12:58:34;1.85;;;0.85;;
67839;SDS011;54636;51.684;5.142;2024-01-30T13:01:00;1.95;;;0.52;;
67839;SDS011;54636;51.684;5.142;2024-01-30T13:03:25;1.20;;;0.50;;
67839;SDS011;54636;51.684;5.142;2024-01-30T13:05:50;2.88;;;0.55;;
67839;SDS011;54636;51.684;5.142;2024-01-30T13:08:16;0.80;;;0.65;;
67839;SDS011;54636;51.684;5.142;2024-01-30T13:10:41;1.00;;;0.50;;
67839;SDS011;54636;51.684;5.142;2024-01-30T13:13:07;4.03;;;0.90;;
67839;SDS011;54636;51.684;5.142;2024-01-30T13:15:33;4.47;;;1.42;;
67839;SDS011;54636;51.684;5.142;2024-01-30T13:17:58;8.50;;;2.13;;
67839;SDS011;54636;51.684;5.142;2024-01-30T13:20:23;5.28;;;2.00;;
67839;SDS011;54636;51.684;5.142;2024-01-30T13:22:49;13.00;;;2.30;;
67839;SDS011;54636;51.684;5.142;2024-01-30T13:25:15;8.13;;;1.60;;
67839;SDS011;54636;51.684;5.142;2024-01-30T13:27:40;11.38;;;2.13;;
67839;SDS011;54636;51.684;5.142;2024-01-30T13:30:06;10.35;;;2.20;;
67839;SDS011;54636;51.684;5.142;2024-01-30T13:32:34;5.53;;;2.55;;
67839;SDS011;54636;51.684;5.142;2024-01-30T13:34:59;4.22;;;2.05;;
67839;SDS011;54636;51.684;5.142;2024-01-30T13:37:25;7.78;;;1.85;;
67839;SDS011;54636;51.684;5.142;2024-01-30T13:39:50;6.13;;;2.00;;
67839;SDS011;54636;51.684;5.142;2024-01-30T13:42:15;15.43;;;2.78;;
67839;SDS011;54636;51.684;5.142;2024-01-30T13:44:41;7.20;;;1.88;;
67839;SDS011;54636;51.684;5.142;2024-01-30T13:47:08;8.48;;;1.95;;
67839;SDS011;54636;51.684;5.142;2024-01-30T13:49:34;10.05;;;2.92;;
67839;SDS011;54636;51.684;5.142;2024-01-30T13:51:59;8.35;;;2.70;;
67839;SDS011;54636;51.684;5.142;2024-01-30T13:54:25;5.35;;;2.70;;
67839;SDS011;54636;51.684;5.142;2024-01-30T13:56:50;4.32;;;2.22;;
67839;SDS011;54636;51.684;5.142;2024-01-30T13:59:15;8.38;;;2.75;;
67839;SDS011;54636;51.684;5.142;2024-01-30T14:01:47;11.40;;;2.60;;
67839;SDS011;54636;51.684;5.142;2024-01-30T14:04:13;7.93;;;1.80;;
67839;SDS011;54636;51.684;5.142;2024-01-30T14:06:39;6.93;;;2.10;;
67839;SDS011;54636;51.684;5.142;2024-01-30T14:09:05;6.72;;;2.00;;
67839;SDS011;54636;51.684;5.142;2024-01-30T14:11:30;4.05;;;1.67;;
67839;SDS011;54636;51.684;5.142;2024-01-30T14:13:56;5.07;;;1.45;;
67839;SDS011;54636;51.684;5.142;2024-01-30T14:16:21;2.60;;;1.35;;
67839;SDS011;54636;51.684;5.142;2024-01-30T14:18:47;7.18;;;2.10;;
67839;SDS011;54636;51.684;5.142;2024-01-30T14:21:13;7.10;;;2.05;;
67839;SDS011;54636;51.684;5.142;2024-01-30T14:23:38;6.05;;;2.25;;
67839;SDS011;54636;51.684;5.142;2024-01-30T14:26:04;4.63;;;1.85;;
67839;SDS011;54636;51.684;5.142;2024-01-30T14:28:29;2.78;;;1.55;;
67839;SDS011;54636;51.684;5.142;2024-01-30T14:30:55;4.55;;;1.30;;
67839;SDS011;54636;51.684;5.142;2024-01-30T14:33:20;3.10;;;1.65;;
67839;SDS011;54636;51.684;5.142;2024-01-30T14:35:46;3.17;;;2.05;;
67839;SDS011;54636;51.684;5.142;2024-01-30T14:38:11;6.57;;;1.85;;
67839;SDS011;54636;51.684;5.142;2024-01-30T14:40:37;6.95;;;2.20;;
67839;SDS011;54636;51.684;5.142;2024-01-30T14:43:03;2.45;;;1.65;;